Gackle, North Dakota
Current Conditions -  °F | °C
As of 2:16 AM on Friday 21 Nov 2014 (Local Time) from KJMS Reporting Station
Few Clouds Few Clouds  
Wind Chill: -3°   Ceiling: Unl
Heat Index: 14°   Visibility: 10mi
Dew Point: 10°   Wind: 17mph
Humidity: 84%   Direction: 180°S
Pressure: 29.89"   Gusts: NA
Location:  46.63°N, 99.14°W
Report Text: KJMS 210816Z AUTO 18015KT 10SM FEW007 M10/M12 A2989 RMK AO2 T11001122
Loading
Personal Weather Stations






























Interactive Weather Map New forecast layout! Learn more

10-Day Weather Forecast

Advertisements
Track Severe Weather on mobile